Time;durP1;ratioP1;P1;durP2;ratioP2;P2;SDS_P1;SDS_P2;PMS_P1;PMS_P2;Temp;Humidity;BMP_temperature;BMP_pressure;BME280_temperature;BME280_humidity;BME280_pressure;Samples;Min_cycle;Max_cycle;Signal;HPM_P1;HPM_P2
2022/01/02 00:01:38;;;;;;;20.93;19.73;;;;;;;;;;4975546;28;20800;-92
2022/01/02 00:04:06;;;;;;;22.63;20.93;;;;;;;;;;4975824;28;20444;-92
2022/01/02 00:06:34;;;;;;;21.53;20.23;;;;;;;;;;4976482;28;20429;-93
2022/01/02 00:09:03;;;;;;;21.50;20.30;;;;;;;;;;4975214;28;20551;-93
2022/01/02 00:11:31;;;;;;;22.77;21.40;;;;;;;;;;4975659;28;20803;-92
2022/01/02 00:14:06;;;;;;;20.80;19.60;;;;;;;;;;4974450;28;20475;-93
2022/01/02 00:16:34;;;;;;;22.80;21.07;;;;;;;;;;4975186;28;20524;-93
2022/01/02 00:19:08;;;;;;;22.23;20.83;;;;;;;;;;4975540;28;20425;-93
2022/01/02 00:21:40;;;;;;;21.93;20.63;;;;;;;;;;4975070;28;20520;-92
2022/01/02 00:24:13;;;;;;;21.30;19.90;;;;;;;;;;4975000;28;20441;-92
2022/01/02 00:26:44;;;;;;;21.97;20.40;;;;;;;;;;4975484;28;20783;-93
2022/01/02 00:29:12;;;;;;;21.47;20.13;;;;;;;;;;4958611;28;20457;-92
2022/01/02 00:31:40;;;;;;;21.67;20.10;;;;;;;;;;4975257;28;20948;-92
2022/01/02 00:34:09;;;;;;;21.73;20.10;;;;;;;;;;4975404;28;20450;-93
2022/01/02 00:36:37;;;;;;;21.90;20.50;;;;;;;;;;4975092;28;20441;-92
2022/01/02 00:39:06;;;;;;;21.60;20.37;;;;;;;;;;4975626;28;20417;-93
2022/01/02 00:41:36;;;;;;;21.60;20.30;;;;;;;;;;4975719;28;20554;-93
2022/01/02 00:44:04;;;;;;;22.00;20.63;;;;;;;;;;4957994;28;20873;-92
2022/01/02 00:46:33;;;;;;;21.07;19.83;;;;;;;;;;4975266;28;20418;-93
2022/01/02 00:49:05;;;;;;;21.47;19.97;;;;;;;;;;4974954;28;20511;-94
2022/01/02 00:51:51;;;;;;;20.87;19.57;;;;;;;;;;4974969;28;20452;-92
2022/01/02 00:54:22;;;;;;;22.40;20.93;;;;;;;;;;4974992;28;20442;-93
2022/01/02 00:56:53;;;;;;;21.47;20.10;;;;;;;;;;4977088;28;20420;-93
2022/01/02 00:59:27;;;;;;;20.60;19.50;;;;;;;;;;4977931;28;20859;-93
2022/01/02 01:01:57;;;;;;;21.23;19.83;;;;;;;;;;4978660;28;20424;-93
2022/01/02 01:04:26;;;;;;;21.77;20.27;;;;;;;;;;4978609;28;20425;-92
2022/01/02 01:06:56;;;;;;;21.97;20.67;;;;;;;;;;4978811;28;20428;-92
2022/01/02 01:09:24;;;;;;;22.13;20.70;;;;;;;;;;4979209;28;20412;-92
2022/01/02 01:11:51;;;;;;;21.17;19.97;;;;;;;;;;4978545;28;20417;-92
2022/01/02 01:14:19;;;;;;;20.70;19.50;;;;;;;;;;4977570;28;20439;-93
2022/01/02 01:16:46;;;;;;;21.03;19.73;;;;;;;;;;4978080;28;20449;-93
2022/01/02 01:19:13;;;;;;;21.20;19.80;;;;;;;;;;4978188;28;20451;-94
2022/01/02 01:21:41;;;;;;;21.13;19.60;;;;;;;;;;4978869;28;20462;-93
2022/01/02 01:24:10;;;;;;;21.60;20.13;;;;;;;;;;4977413;28;20985;-92
2022/01/02 01:26:38;;;;;;;20.27;19.10;;;;;;;;;;4978178;28;20461;-93
2022/01/02 01:29:05;;;;;;;21.67;20.47;;;;;;;;;;4977201;28;20507;-93
2022/01/02 01:31:32;;;;;;;20.57;19.37;;;;;;;;;;4978038;28;20456;-93
2022/01/02 01:34:00;;;;;;;20.83;19.53;;;;;;;;;;4977105;28;20441;-92
2022/01/02 01:36:28;;;;;;;20.37;19.27;;;;;;;;;;4978103;28;20432;-93
2022/01/02 01:38:55;;;;;;;20.60;19.50;;;;;;;;;;4978497;28;20438;-93
2022/01/02 01:41:27;;;;;;;21.33;20.00;;;;;;;;;;4978759;28;20405;-92
2022/01/02 01:44:07;;;;;;;20.33;19.13;;;;;;;;;;4977944;28;20435;-93
2022/01/02 01:46:34;;;;;;;20.47;19.10;;;;;;;;;;4978350;28;20461;-92
2022/01/02 01:49:02;;;;;;;20.23;19.13;;;;;;;;;;4960532;28;20503;-92
2022/01/02 01:51:29;;;;;;;20.83;19.50;;;;;;;;;;4978214;28;20452;-92
2022/01/02 01:53:57;;;;;;;21.40;19.73;;;;;;;;;;4977461;28;20441;-92
2022/01/02 01:56:25;;;;;;;20.67;19.47;;;;;;;;;;4977886;28;20500;-93
2022/01/02 01:58:53;;;;;;;21.10;19.47;;;;;;;;;;4977863;28;20925;-93
2022/01/02 02:01:20;;;;;;;21.13;19.93;;;;;;;;;;4977382;28;20913;-92
2022/01/02 02:03:48;;;;;;;21.87;20.23;;;;;;;;;;4977788;28;20765;-91
2022/01/02 02:06:15;;;;;;;21.80;20.00;;;;;;;;;;4977757;28;20789;-91
2022/01/02 02:08:43;;;;;;;21.63;20.33;;;;;;;;;;4977034;28;20468;-92
2022/01/02 02:11:10;;;;;;;20.80;19.60;;;;;;;;;;4977709;28;20472;-92
2022/01/02 02:13:40;;;;;;;20.90;19.50;;;;;;;;;;4977804;28;20535;-91
2022/01/02 02:16:08;;;;;;;20.53;19.30;;;;;;;;;;4977154;28;20462;-91
2022/01/02 02:18:36;;;;;;;20.77;19.57;;;;;;;;;;4977125;28;20445;-91
2022/01/02 02:21:05;;;;;;;20.20;19.10;;;;;;;;;;4977039;28;20467;-91
2022/01/02 02:23:32;;;;;;;22.03;20.33;;;;;;;;;;4977039;28;20442;-91
2022/01/02 02:25:59;;;;;;;20.57;19.43;;;;;;;;;;4977498;28;20439;-91
2022/01/02 02:28:27;;;;;;;20.73;19.37;;;;;;;;;;4977519;28;20991;-91
2022/01/02 02:30:55;;;;;;;20.17;19.00;;;;;;;;;;4976689;28;20476;-93
2022/01/02 02:33:23;;;;;;;21.13;19.83;;;;;;;;;;4977175;28;20447;-92
2022/01/02 02:35:51;;;;;;;20.37;19.07;;;;;;;;;;4976964;28;20521;-92
2022/01/02 02:38:20;;;;;;;21.17;19.77;;;;;;;;;;4977455;28;20446;-91
2022/01/02 02:40:48;;;;;;;20.63;19.13;;;;;;;;;;4976749;28;20444;-91
2022/01/02 02:43:26;;;;;;;20.10;18.97;;;;;;;;;;4977037;28;20874;-91
2022/01/02 02:51:28;;;;;;;20.03;18.83;;;;;;;;;;4974443;28;20882;-90
2022/01/02 02:53:58;;;;;;;20.60;19.40;;;;;;;;;;4976297;28;20409;-93
2022/01/02 02:56:28;;;;;;;21.43;20.00;;;;;;;;;;4974333;28;20429;-93
2022/01/02 02:58:57;;;;;;;21.73;20.23;;;;;;;;;;4976404;28;20495;-93
2022/01/02 03:01:26;;;;;;;20.73;19.50;;;;;;;;;;4974609;28;20492;-93
2022/01/02 03:03:53;;;;;;;20.40;19.20;;;;;;;;;;4975828;28;20410;-93
2022/01/02 03:06:21;;;;;;;20.73;19.53;;;;;;;;;;4976112;28;20435;-93
2022/01/02 03:08:49;;;;;;;20.80;19.40;;;;;;;;;;4976072;28;20508;-92
2022/01/02 03:11:20;;;;;;;21.27;20.00;;;;;;;;;;4975994;28;20508;-92
2022/01/02 03:13:48;;;;;;;22.17;20.57;;;;;;;;;;4975901;28;20783;-93
2022/01/02 03:16:15;;;;;;;21.23;19.73;;;;;;;;;;4974904;28;20510;-92
2022/01/02 03:18:43;;;;;;;21.23;19.93;;;;;;;;;;4976267;28;20520;-93
2022/01/02 03:21:11;;;;;;;21.33;19.97;;;;;;;;;;4975495;28;20770;-93
2022/01/02 03:23:38;;;;;;;21.60;20.20;;;;;;;;;;4975974;28;20458;-92
2022/01/02 03:26:06;;;;;;;22.00;20.70;;;;;;;;;;4976296;28;20431;-93
2022/01/02 03:28:35;;;;;;;21.13;19.80;;;;;;;;;;4974884;28;20490;-93
2022/01/02 03:31:02;;;;;;;22.17;20.57;;;;;;;;;;4975896;28;20485;-93
2022/01/02 03:33:30;;;;;;;21.20;19.90;;;;;;;;;;4976342;28;20414;-93
2022/01/02 03:35:57;;;;;;;20.87;19.53;;;;;;;;;;4975158;28;20454;-93
2022/01/02 03:38:24;;;;;;;21.50;19.97;;;;;;;;;;4975879;28;20428;-93
2022/01/02 03:40:52;;;;;;;21.73;20.33;;;;;;;;;;4976058;28;20442;-93
2022/01/02 03:43:19;;;;;;;21.90;20.60;;;;;;;;;;4975697;28;20416;-93
2022/01/02 03:45:48;;;;;;;20.83;19.63;;;;;;;;;;4975865;28;20453;-93
2022/01/02 03:48:15;;;;;;;21.40;20.10;;;;;;;;;;4975759;28;20468;-93
2022/01/02 03:50:42;;;;;;;21.57;20.23;;;;;;;;;;4975602;28;20954;-92
2022/01/02 03:53:10;;;;;;;22.43;20.90;;;;;;;;;;4976012;28;20416;-94
2022/01/02 03:55:39;;;;;;;20.63;19.43;;;;;;;;;;4975486;28;20416;-93
2022/01/02 03:58:06;;;;;;;21.47;20.17;;;;;;;;;;4975901;28;20420;-93
2022/01/02 04:00:34;;;;;;;21.07;19.87;;;;;;;;;;4975770;28;20428;-93
2022/01/02 04:03:03;;;;;;;20.87;19.57;;;;;;;;;;4975684;28;20425;-92
2022/01/02 04:05:31;;;;;;;23.10;21.30;;;;;;;;;;4975686;28;20819;-93
2022/01/02 04:07:59;;;;;;;21.70;20.33;;;;;;;;;;4974295;28;20439;-94
2022/01/02 04:10:26;;;;;;;22.50;21.00;;;;;;;;;;4975358;28;20815;-92
2022/01/02 04:12:53;;;;;;;21.30;20.10;;;;;;;;;;4975850;28;20417;-92
2022/01/02 04:15:21;;;;;;;21.97;20.47;;;;;;;;;;4975508;28;20432;-92
2022/01/02 04:17:48;;;;;;;21.37;20.10;;;;;;;;;;4975543;28;20446;-92
2022/01/02 04:20:17;;;;;;;21.37;20.07;;;;;;;;;;4975427;28;20450;-92
2022/01/02 04:22:45;;;;;;;21.60;20.10;;;;;;;;;;4974072;28;20940;-93
2022/01/02 04:25:13;;;;;;;21.63;19.87;;;;;;;;;;4975206;28;20802;-93
2022/01/02 04:27:40;;;;;;;21.13;19.93;;;;;;;;;;4975345;28;20463;-93
2022/01/02 04:30:09;;;;;;;21.43;19.93;;;;;;;;;;4975376;28;20483;-93
2022/01/02 04:32:37;;;;;;;21.40;19.90;;;;;;;;;;4980284;28;20457;-93
2022/01/02 04:35:04;;;;;;;21.17;19.97;;;;;;;;;;4981913;28;20798;-93
2022/01/02 04:37:33;;;;;;;22.33;21.03;;;;;;;;;;4980637;28;20519;-93
2022/01/02 04:40:01;;;;;;;21.40;20.00;;;;;;;;;;4981443;28;20425;-93
2022/01/02 04:42:28;;;;;;;21.53;20.13;;;;;;;;;;4981296;28;20493;-94
2022/01/02 04:44:55;;;;;;;22.37;20.77;;;;;;;;;;4981756;28;20444;-94
2022/01/02 04:47:23;;;;;;;21.77;20.37;;;;;;;;;;4980436;28;20485;-94
2022/01/02 04:49:50;;;;;;;22.43;20.67;;;;;;;;;;4981111;28;20540;-92
2022/01/02 04:52:18;;;;;;;21.77;20.37;;;;;;;;;;4981639;28;20454;-93
2022/01/02 04:54:47;;;;;;;21.23;19.80;;;;;;;;;;4981332;28;20416;-93
2022/01/02 04:57:14;;;;;;;22.00;20.60;;;;;;;;;;4982297;28;20437;-93
2022/01/02 04:59:42;;;;;;;23.33;21.50;;;;;;;;;;4981522;28;20464;-93
2022/01/02 05:02:09;;;;;;;22.67;21.17;;;;;;;;;;4964259;28;20944;-93
2022/01/02 05:04:36;;;;;;;22.80;21.30;;;;;;;;;;4981344;28;20431;-93
2022/01/02 05:07:05;;;;;;;21.47;20.07;;;;;;;;;;4981826;28;20447;-93
2022/01/02 05:09:32;;;;;;;22.60;20.87;;;;;;;;;;4981373;28;20833;-93
2022/01/02 05:12:01;;;;;;;22.40;20.70;;;;;;;;;;4981279;28;20531;-92
2022/01/02 05:14:28;;;;;;;22.40;21.10;;;;;;;;;;4981428;28;20433;-93
2022/01/02 05:16:56;;;;;;;22.40;20.80;;;;;;;;;;4981363;28;20536;-94
2022/01/02 05:19:23;;;;;;;21.90;20.50;;;;;;;;;;4980000;28;20477;-93
2022/01/02 05:21:50;;;;;;;22.43;20.93;;;;;;;;;;4981502;28;20412;-93
2022/01/02 05:24:18;;;;;;;22.30;20.60;;;;;;;;;;4981363;28;20562;-93
2022/01/02 05:26:45;;;;;;;21.23;19.93;;;;;;;;;;4981546;28;20438;-94
2022/01/02 05:29:15;;;;;;;22.10;20.50;;;;;;;;;;4980250;28;21039;-93
2022/01/02 05:31:42;;;;;;;22.30;20.63;;;;;;;;;;4980094;28;20960;-94
2022/01/02 05:34:10;;;;;;;22.33;20.93;;;;;;;;;;4980991;28;20446;-94
2022/01/02 05:36:37;;;;;;;22.37;20.77;;;;;;;;;;4981374;28;20446;-94
2022/01/02 05:39:04;;;;;;;22.90;21.50;;;;;;;;;;4981487;28;20466;-94
2022/01/02 05:41:33;;;;;;;22.80;20.67;;;;;;;;;;4981336;28;20452;-94
2022/01/02 05:44:01;;;;;;;22.60;21.20;;;;;;;;;;4978037;28;20409;-93
2022/01/02 05:46:30;;;;;;;21.80;20.50;;;;;;;;;;4978350;28;20448;-93
2022/01/02 05:48:57;;;;;;;22.70;21.03;;;;;;;;;;4978013;28;20520;-93
2022/01/02 05:51:24;;;;;;;22.10;20.43;;;;;;;;;;4977940;28;20491;-95
2022/01/02 05:53:52;;;;;;;22.20;20.60;;;;;;;;;;4961025;28;20425;-95
2022/01/02 05:56:19;;;;;;;22.30;20.53;;;;;;;;;;4977667;28;20421;-94
2022/01/02 05:58:47;;;;;;;22.20;20.80;;;;;;;;;;4977586;28;20429;-93
2022/01/02 06:01:14;;;;;;;20.53;19.20;;;;;;;;;;4977581;28;20531;-94
2022/01/02 06:03:43;;;;;;;22.37;20.53;;;;;;;;;;4977758;28;20832;-93
2022/01/02 06:06:11;;;;;;;22.43;20.83;;;;;;;;;;4977652;28;20428;-94
2022/01/02 06:08:38;;;;;;;22.07;20.00;;;;;;;;;;4977785;28;20418;-93
2022/01/02 06:11:06;;;;;;;21.13;19.50;;;;;;;;;;4977671;28;20416;-94
2022/01/02 06:13:33;;;;;;;22.37;20.77;;;;;;;;;;4977463;28;20440;-94
2022/01/02 06:16:01;;;;;;;21.07;19.70;;;;;;;;;;4977511;28;20952;-94
2022/01/02 06:18:28;;;;;;;22.00;20.30;;;;;;;;;;4977356;28;20466;-94
2022/01/02 06:20:57;;;;;;;23.80;21.87;;;;;;;;;;4977930;28;20428;-93
2022/01/02 06:23:24;;;;;;;25.53;23.60;;;;;;;;;;4977468;28;20456;-94
2022/01/02 06:25:53;;;;;;;21.83;20.60;;;;;;;;;;4977234;28;20436;-93
2022/01/02 06:28:20;;;;;;;20.13;18.83;;;;;;;;;;4977540;28;20442;-93
2022/01/02 06:30:47;;;;;;;21.37;19.87;;;;;;;;;;4977208;28;20878;-93
2022/01/02 06:33:15;;;;;;;21.80;19.93;;;;;;;;;;4977259;28;20439;-93
2022/01/02 06:35:42;;;;;;;21.03;19.53;;;;;;;;;;4976807;28;20475;-94
2022/01/02 06:38:15;;;;;;;21.40;19.90;;;;;;;;;;4977074;28;20445;-93
2022/01/02 06:40:43;;;;;;;19.90;18.67;;;;;;;;;;4975940;28;20911;-94
2022/01/02 06:43:13;;;;;;;20.90;19.70;;;;;;;;;;4976763;28;20824;-95
2022/01/02 06:45:40;;;;;;;21.37;19.87;;;;;;;;;;4975567;28;20448;-94
2022/01/02 06:48:07;;;;;;;21.43;20.03;;;;;;;;;;4976092;28;20450;-95
2022/01/02 06:50:35;;;;;;;22.03;19.83;;;;;;;;;;4975827;28;20605;-95
2022/01/02 06:53:02;;;;;;;21.33;19.63;;;;;;;;;;4976483;28;20458;-93
2022/01/02 06:55:31;;;;;;;22.27;20.73;;;;;;;;;;4975566;28;20421;-94
2022/01/02 06:57:58;;;;;;;21.33;19.83;;;;;;;;;;4977008;28;20413;-92
2022/01/02 07:00:26;;;;;;;21.33;19.63;;;;;;;;;;4976706;28;20409;-93
2022/01/02 07:02:53;;;;;;;20.47;19.30;;;;;;;;;;4976187;28;20826;-92
2022/01/02 07:05:21;;;;;;;21.73;19.70;;;;;;;;;;4975100;28;20421;-93
2022/01/02 07:07:48;;;;;;;22.43;20.73;;;;;;;;;;4975389;28;20438;-93
2022/01/02 07:10:16;;;;;;;22.33;20.80;;;;;;;;;;4975834;28;20482;-93
2022/01/02 07:12:45;;;;;;;23.10;21.37;;;;;;;;;;4975300;28;20455;-93
2022/01/02 07:15:13;;;;;;;21.47;19.83;;;;;;;;;;4975807;28;20432;-93
2022/01/02 07:17:40;;;;;;;22.23;20.23;;;;;;;;;;4975986;28;20413;-93
2022/01/02 07:20:08;;;;;;;22.30;20.10;;;;;;;;;;4975328;28;20476;-94
2022/01/02 07:22:35;;;;;;;21.03;19.50;;;;;;;;;;4976689;28;20405;-93
2022/01/02 07:25:03;;;;;;;22.67;20.67;;;;;;;;;;4976311;28;20416;-93
2022/01/02 07:27:30;;;;;;;22.03;20.20;;;;;;;;;;4975180;28;20446;-93
2022/01/02 07:29:59;;;;;;;22.73;21.20;;;;;;;;;;4976110;28;20480;-93
2022/01/02 07:32:27;;;;;;;22.60;21.10;;;;;;;;;;4976046;28;20899;-93
2022/01/02 07:34:54;;;;;;;22.37;20.73;;;;;;;;;;4975241;28;20460;-93
2022/01/02 07:37:21;;;;;;;21.47;19.73;;;;;;;;;;4976036;28;20457;-93
2022/01/02 07:39:49;;;;;;;21.70;20.00;;;;;;;;;;4975997;28;20450;-93
2022/01/02 07:42:16;;;;;;;21.80;20.40;;;;;;;;;;4958986;28;20505;-94
2022/01/02 07:44:44;;;;;;;22.27;20.63;;;;;;;;;;4976043;28;20514;-92
2022/01/02 07:47:12;;;;;;;21.07;19.30;;;;;;;;;;4976605;28;20486;-92
2022/01/02 07:49:40;;;;;;;22.07;20.43;;;;;;;;;;4975502;28;20508;-94
2022/01/02 07:52:07;;;;;;;21.87;20.33;;;;;;;;;;4976050;28;20413;-93
2022/01/02 07:54:34;;;;;;;21.70;20.20;;;;;;;;;;4975407;28;20445;-92
2022/01/02 07:57:02;;;;;;;22.37;20.80;;;;;;;;;;4975533;28;20438;-92
2022/01/02 07:59:29;;;;;;;22.23;20.50;;;;;;;;;;4975765;28;20786;-93
2022/01/02 08:01:57;;;;;;;22.60;20.67;;;;;;;;;;4974920;28;20420;-93
2022/01/02 08:04:26;;;;;;;22.37;20.70;;;;;;;;;;4975037;28;20506;-93
2022/01/02 08:06:53;;;;;;;21.00;19.70;;;;;;;;;;4975067;28;20413;-93
2022/01/02 08:09:21;;;;;;;22.67;20.70;;;;;;;;;;4975024;28;20475;-93
2022/01/02 08:11:48;;;;;;;23.00;20.90;;;;;;;;;;4975192;28;20438;-94
2022/01/02 08:14:16;;;;;;;23.00;20.97;;;;;;;;;;4975036;28;20793;-93
2022/01/02 08:16:44;;;;;;;22.73;21.13;;;;;;;;;;4975292;28;20404;-94
2022/01/02 08:19:11;;;;;;;22.97;21.13;;;;;;;;;;4975325;28;20895;-93
2022/01/02 08:21:40;;;;;;;22.10;20.27;;;;;;;;;;4973717;28;20493;-93
2022/01/02 08:24:08;;;;;;;22.13;20.50;;;;;;;;;;4974820;28;20549;-93
2022/01/02 08:26:35;;;;;;;22.63;20.73;;;;;;;;;;4975485;28;20397;-93
2022/01/02 08:29:03;;;;;;;21.60;19.97;;;;;;;;;;4975551;28;20861;-93
2022/01/02 08:31:30;;;;;;;21.90;20.50;;;;;;;;;;4974832;28;20566;-93
2022/01/02 08:33:58;;;;;;;22.03;20.40;;;;;;;;;;4975316;28;20417;-93
2022/01/02 08:36:25;;;;;;;22.10;20.80;;;;;;;;;;4973930;28;20487;-93
2022/01/02 08:38:54;;;;;;;20.90;19.57;;;;;;;;;;4975157;28;20416;-93
2022/01/02 08:41:22;;;;;;;20.70;19.50;;;;;;;;;;4975395;28;20436;-93
2022/01/02 08:43:49;;;;;;;22.20;20.40;;;;;;;;;;4975127;28;20435;-93
2022/01/02 08:46:16;;;;;;;22.87;21.00;;;;;;;;;;4975038;28;20443;-93
2022/01/02 08:48:44;;;;;;;22.13;20.43;;;;;;;;;;4975471;28;20413;-94
2022/01/02 08:51:12;;;;;;;22.27;20.77;;;;;;;;;;4974771;28;20468;-93
2022/01/02 08:53:39;;;;;;;21.20;19.80;;;;;;;;;;4975511;28;20455;-94
2022/01/02 08:56:08;;;;;;;22.70;20.67;;;;;;;;;;4981494;28;20432;-94
2022/01/02 08:58:36;;;;;;;22.30;20.80;;;;;;;;;;4975440;28;20425;-94
2022/01/02 09:01:04;;;;;;;21.97;20.33;;;;;;;;;;4975541;28;20417;-94
2022/01/02 09:03:31;;;;;;;24.63;21.40;;;;;;;;;;4975754;28;20458;-94
2022/01/02 09:05:59;;;;;;;23.00;21.30;;;;;;;;;;4975474;28;20465;-94
2022/01/02 09:08:26;;;;;;;20.87;19.20;;;;;;;;;;4974556;28;20461;-94
2022/01/02 09:10:54;;;;;;;21.90;19.80;;;;;;;;;;4977298;28;20465;-95
2022/01/02 09:13:26;;;;;;;21.27;19.47;;;;;;;;;;4976152;28;20433;-91
2022/01/02 09:15:53;;;;;;;21.07;19.60;;;;;;;;;;4976202;28;20441;-88
2022/01/02 09:18:21;;;;;;;21.50;19.70;;;;;;;;;;4977130;28;20440;-95
2022/01/02 09:20:49;;;;;;;23.03;20.80;;;;;;;;;;4975370;28;20450;-96
2022/01/02 09:23:17;;;;;;;20.77;19.20;;;;;;;;;;4988951;28;20430;-94
2022/01/02 09:25:44;;;;;;;21.77;20.07;;;;;;;;;;4978520;28;20488;-95
2022/01/02 09:28:11;;;;;;;20.43;19.00;;;;;;;;;;4977926;28;20421;-93
2022/01/02 09:30:40;;;;;;;22.17;20.47;;;;;;;;;;4977750;28;20509;-92
2022/01/02 09:33:08;;;;;;;21.33;19.87;;;;;;;;;;4976986;28;20495;-93
2022/01/02 09:35:37;;;;;;;20.80;19.13;;;;;;;;;;4977679;28;20453;-89
2022/01/02 09:38:05;;;;;;;21.23;19.53;;;;;;;;;;4977967;28;20523;-93
2022/01/02 09:40:32;;;;;;;20.37;19.03;;;;;;;;;;4977487;28;20440;-91
2022/01/02 09:43:00;;;;;;;21.90;20.30;;;;;;;;;;4977688;28;20529;-91
2022/01/02 09:45:27;;;;;;;21.07;19.33;;;;;;;;;;4977644;28;20507;-92
2022/01/02 09:47:56;;;;;;;22.20;20.57;;;;;;;;;;4977744;28;20446;-91
2022/01/02 09:50:23;;;;;;;20.17;18.87;;;;;;;;;;4977556;28;20878;-91
2022/01/02 09:52:51;;;;;;;21.77;20.00;;;;;;;;;;4977652;28;20421;-91
2022/01/02 09:55:19;;;;;;;20.57;19.03;;;;;;;;;;4977602;28;20433;-92
2022/01/02 09:57:46;;;;;;;21.17;19.70;;;;;;;;;;4977596;28;20429;-91
2022/01/02 10:00:14;;;;;;;19.97;18.77;;;;;;;;;;4977186;28;20434;-92
2022/01/02 10:03:11;;;;;;;22.37;20.70;;;;;;;;;;4977154;28;20446;-86
2022/01/02 10:05:53;;;;;;;21.37;19.77;;;;;;;;;;4976977;28;20517;-91
2022/01/02 10:08:21;;;;;;;20.97;19.10;;;;;;;;;;4977353;28;20486;-93
2022/01/02 10:10:49;;;;;;;21.10;19.13;;;;;;;;;;4977311;28;20811;-90
2022/01/02 10:13:16;;;;;;;21.17;19.57;;;;;;;;;;4977324;28;20409;-90
2022/01/02 10:15:45;;;;;;;20.57;18.90;;;;;;;;;;4977201;28;20854;-90
2022/01/02 10:18:15;;;;;;;19.97;18.67;;;;;;;;;;4976979;28;20427;-90
2022/01/02 10:20:43;;;;;;;20.40;19.20;;;;;;;;;;4977134;28;20944;-89
2022/01/02 10:23:13;;;;;;;21.80;20.20;;;;;;;;;;4976727;28;20405;-90
2022/01/02 10:25:41;;;;;;;21.17;19.57;;;;;;;;;;4976761;28;20454;-88
2022/01/02 10:28:19;;;;;;;20.53;19.13;;;;;;;;;;4976989;28;20425;-85
2022/01/02 10:30:47;;;;;;;21.20;19.10;;;;;;;;;;4976231;28;20476;-91
2022/01/02 10:33:15;;;;;;;20.03;18.50;;;;;;;;;;4977063;28;20449;-91
2022/01/02 10:35:43;;;;;;;22.23;19.27;;;;;;;;;;4976694;28;20421;-93
2022/01/02 10:38:16;;;;;;;22.00;20.50;;;;;;;;;;4977008;28;20539;-92
2022/01/02 10:40:44;;;;;;;21.00;19.50;;;;;;;;;;4976276;28;20407;-94
2022/01/02 10:43:13;;;;;;;20.53;19.30;;;;;;;;;;4976798;28;20408;-94
2022/01/02 10:45:43;;;;;;;20.47;18.97;;;;;;;;;;4976740;28;20445;-93
2022/01/02 10:48:11;;;;;;;20.47;18.97;;;;;;;;;;4975173;28;20443;-89
2022/01/02 10:50:41;;;;;;;20.63;19.07;;;;;;;;;;4975363;28;20822;-88
2022/01/02 10:53:16;;;;;;;20.00;18.70;;;;;;;;;;4976294;28;20924;-88
2022/01/02 10:55:45;;;;;;;21.37;19.87;;;;;;;;;;4976274;28;20952;-88
2022/01/02 10:58:13;;;;;;;22.00;20.50;;;;;;;;;;4958956;28;20524;-88
2022/01/02 11:00:41;;;;;;;21.93;20.33;;;;;;;;;;4975936;28;20425;-87
2022/01/02 11:03:08;;;;;;;20.73;19.57;;;;;;;;;;4975943;28;20424;-88
2022/01/02 11:05:36;;;;;;;23.00;21.20;;;;;;;;;;4976309;28;20416;-88
2022/01/02 11:08:06;;;;;;;21.50;20.23;;;;;;;;;;4976078;28;20455;-87
2022/01/02 11:10:35;;;;;;;19.80;18.80;;;;;;;;;;4975878;28;20517;-87
2022/01/02 11:13:04;;;;;;;21.00;19.40;;;;;;;;;;4976023;28;20468;-86
2022/01/02 11:15:31;;;;;;;20.03;18.93;;;;;;;;;;4976099;28;20545;-88
2022/01/02 11:17:59;;;;;;;20.17;19.17;;;;;;;;;;4975904;28;20443;-88
2022/01/02 11:20:27;;;;;;;21.50;19.80;;;;;;;;;;4975832;28;20802;-86
2022/01/02 11:23:01;;;;;;;19.80;18.77;;;;;;;;;;4975328;28;21014;-87
2022/01/02 11:25:33;;;;;;;20.77;19.67;;;;;;;;;;4976069;28;20409;-90
2022/01/02 11:28:03;;;;;;;21.20;20.10;;;;;;;;;;4975776;28;20824;-89
2022/01/02 11:30:40;;;;;;;21.67;20.20;;;;;;;;;;4974985;28;20471;-91
2022/01/02 11:33:09;;;;;;;19.97;18.87;;;;;;;;;;4975998;28;20441;-89
2022/01/02 11:35:37;;;;;;;21.73;20.40;;;;;;;;;;4976675;28;20484;-92
2022/01/02 11:38:06;;;;;;;22.40;21.20;;;;;;;;;;4974069;28;20421;-86
2022/01/02 11:40:45;;;;;;;22.60;21.20;;;;;;;;;;4974940;28;20424;-87
2022/01/02 11:43:46;;;;;;;22.27;21.10;;;;;;;;;;4975153;28;20441;-86
2022/01/02 11:46:16;;;;;;;21.10;19.70;;;;;;;;;;4974929;28;20478;-84
2022/01/02 11:48:43;;;;;;;21.70;20.50;;;;;;;;;;4974955;28;20451;-85
2022/01/02 11:51:11;;;;;;;24.57;22.73;;;;;;;;;;4973346;28;20493;-88
2022/01/02 11:53:52;;;;;;;21.60;20.20;;;;;;;;;;4974719;28;20987;-86
2022/01/02 11:56:32;;;;;;;20.40;19.40;;;;;;;;;;4975452;28;20416;-86
2022/01/02 11:59:00;;;;;;;22.60;20.93;;;;;;;;;;4974714;28;20428;-87
2022/01/02 12:01:48;;;;;;;22.07;20.87;;;;;;;;;;4975333;28;20441;-87
2022/01/02 12:04:15;;;;;;;22.43;20.90;;;;;;;;;;4975282;28;20493;-86
2022/01/02 12:06:45;;;;;;;23.13;21.57;;;;;;;;;;4975621;28;20440;-93
2022/01/02 12:09:34;;;;;;;21.20;20.00;;;;;;;;;;4974841;28;20430;-88
2022/01/02 12:12:04;;;;;;;22.23;21.03;;;;;;;;;;4975065;28;20488;-88
2022/01/02 12:14:31;;;;;;;21.13;19.97;;;;;;;;;;4975055;28;20504;-87
2022/01/02 12:17:01;;;;;;;22.37;21.07;;;;;;;;;;4975555;28;20874;-87
2022/01/02 12:19:28;;;;;;;20.13;19.13;;;;;;;;;;4975497;28;20417;-87
2022/01/02 12:22:12;;;;;;;21.67;20.57;;;;;;;;;;4975021;28;20484;-89
2022/01/02 12:24:40;;;;;;;22.93;21.43;;;;;;;;;;4975475;28;20425;-87
2022/01/02 12:27:13;;;;;;;22.27;20.97;;;;;;;;;;4975351;28;20508;-87
2022/01/02 12:29:41;;;;;;;23.03;21.53;;;;;;;;;;4974607;28;20453;-87
2022/01/02 12:32:09;;;;;;;24.90;23.40;;;;;;;;;;4974858;28;20472;-87
2022/01/02 12:34:36;;;;;;;23.57;22.17;;;;;;;;;;4975319;28;20453;-86
2022/01/02 12:37:04;;;;;;;24.63;23.23;;;;;;;;;;4975061;28;20442;-87
2022/01/02 12:39:33;;;;;;;22.10;20.53;;;;;;;;;;4974854;28;20441;-87
2022/01/02 12:42:05;;;;;;;22.53;21.13;;;;;;;;;;4975118;28;20454;-89
2022/01/02 12:44:35;;;;;;;21.03;19.80;;;;;;;;;;4974869;28;20461;-89
2022/01/02 12:47:03;;;;;;;22.97;21.57;;;;;;;;;;4975101;28;20429;-89
2022/01/02 12:49:31;;;;;;;23.60;22.13;;;;;;;;;;4975022;28;20461;-90
2022/01/02 12:52:01;;;;;;;22.50;21.00;;;;;;;;;;4975740;28;20962;-88
2022/01/02 12:54:29;;;;;;;23.00;21.60;;;;;;;;;;4978712;28;20466;-89
2022/01/02 12:56:58;;;;;;;24.77;23.07;;;;;;;;;;4979490;28;20962;-89
2022/01/02 12:59:26;;;;;;;24.53;23.03;;;;;;;;;;4979526;28;20461;-87
2022/01/02 13:02:08;;;;;;;23.23;21.73;;;;;;;;;;4979154;28;20442;-84
2022/01/02 13:04:36;;;;;;;22.77;21.37;;;;;;;;;;4976722;28;20454;-89
2022/01/02 13:07:05;;;;;;;23.63;22.13;;;;;;;;;;4978925;28;20840;-88
2022/01/02 13:09:36;;;;;;;23.50;21.90;;;;;;;;;;4978696;28;20995;-88
2022/01/02 13:12:04;;;;;;;24.30;22.60;;;;;;;;;;4978797;28;20461;-88
2022/01/02 13:14:41;;;;;;;24.63;23.00;;;;;;;;;;4980268;28;20450;-87
2022/01/02 13:17:11;;;;;;;23.27;21.40;;;;;;;;;;4979626;28;20925;-88
2022/01/02 13:19:40;;;;;;;22.80;21.50;;;;;;;;;;4981736;28;20428;-87
2022/01/02 13:22:08;;;;;;;24.50;23.03;;;;;;;;;;4979292;28;20956;-88
2022/01/02 13:24:36;;;;;;;24.93;23.23;;;;;;;;;;4979964;28;20455;-88
2022/01/02 13:27:05;;;;;;;26.43;24.37;;;;;;;;;;4979928;28;20434;-88
2022/01/02 13:29:32;;;;;;;26.80;24.93;;;;;;;;;;4989154;28;20448;-87
2022/01/02 13:32:12;;;;;;;25.50;23.70;;;;;;;;;;4987331;28;20485;-88
2022/01/02 13:34:42;;;;;;;25.33;23.57;;;;;;;;;;4978708;28;20917;-88
2022/01/02 13:37:09;;;;;;;23.77;22.37;;;;;;;;;;4979154;28;20416;-88
2022/01/02 13:39:44;;;;;;;25.63;23.47;;;;;;;;;;4979395;28;20835;-88
2022/01/02 13:42:12;;;;;;;22.33;20.73;;;;;;;;;;4981685;28;20441;-88
2022/01/02 13:44:42;;;;;;;24.60;22.70;;;;;;;;;;4980737;28;20580;-87
2022/01/02 13:47:09;;;;;;;24.20;22.23;;;;;;;;;;4980855;28;20424;-87
2022/01/02 13:49:41;;;;;;;23.50;21.97;;;;;;;;;;4979790;28;20462;-88
2022/01/02 13:52:09;;;;;;;23.40;22.00;;;;;;;;;;4980717;28;20464;-88
2022/01/02 13:54:36;;;;;;;24.30;22.60;;;;;;;;;;4981891;28;20437;-87
2022/01/02 13:57:06;;;;;;;23.33;21.80;;;;;;;;;;4980198;28;20426;-86
2022/01/02 13:59:34;;;;;;;23.17;21.83;;;;;;;;;;4979476;28;20436;-86
2022/01/02 14:02:05;;;;;;;23.90;22.40;;;;;;;;;;4981244;28;20471;-88
2022/01/02 14:04:51;;;;;;;23.53;22.00;;;;;;;;;;4980335;28;20442;-87
2022/01/02 14:07:20;;;;;;;22.83;21.30;;;;;;;;;;4979126;28;20421;-84
2022/01/02 14:09:52;;;;;;;22.87;21.23;;;;;;;;;;4979592;28;20432;-87
2022/01/02 14:12:20;;;;;;;24.57;22.70;;;;;;;;;;4981687;28;20502;-85
2022/01/02 14:15:00;;;;;;;21.67;20.37;;;;;;;;;;4980767;28;20478;-85
2022/01/02 14:17:33;;;;;;;21.90;20.70;;;;;;;;;;4979638;28;20435;-85
2022/01/02 14:20:03;;;;;;;21.70;20.30;;;;;;;;;;4980497;28;20442;-86
2022/01/02 14:22:35;;;;;;;23.67;21.53;;;;;;;;;;4979449;28;20452;-85
2022/01/02 14:25:03;;;;;;;21.77;20.37;;;;;;;;;;4980323;28;20456;-85
2022/01/02 14:27:32;;;;;;;23.90;22.30;;;;;;;;;;4981604;28;20461;-85
2022/01/02 14:29:59;;;;;;;23.93;22.23;;;;;;;;;;4981705;28;20485;-86
2022/01/02 14:32:27;;;;;;;23.17;21.87;;;;;;;;;;4980715;28;20490;-87